sensor_id;sensor_type;location;lat;lon;timestamp;temperature;humidity
41756;DHT22;27435;48.480;9.258;2024-02-04T00:02:02;7.30;99.00
41756;DHT22;27435;48.480;9.258;2024-02-04T00:04:32;7.30;99.00
41756;DHT22;27435;48.480;9.258;2024-02-04T00:07:06;7.30;99.00
41756;DHT22;27435;48.480;9.258;2024-02-04T00:09:39;7.30;99.00
41756;DHT22;27435;48.480;9.258;2024-02-04T00:12:08;7.30;99.00
41756;DHT22;27435;48.480;9.258;2024-02-04T00:14:34;7.40;99.00
41756;DHT22;27435;48.480;9.258;2024-02-04T00:17:00;7.30;99.00
41756;DHT22;27435;48.480;9.258;2024-02-04T00:19:32;7.40;99.00
41756;DHT22;27435;48.480;9.258;2024-02-04T00:21:58;7.40;99.00
41756;DHT22;27435;48.480;9.258;2024-02-04T00:24:23;7.30;99.00
41756;DHT22;27435;48.480;9.258;2024-02-04T00:26:49;7.30;99.00
41756;DHT22;27435;48.480;9.258;2024-02-04T00:29:14;7.40;99.00
41756;DHT22;27435;48.480;9.258;2024-02-04T00:31:40;7.40;99.00
41756;DHT22;27435;48.480;9.258;2024-02-04T00:34:12;7.40;99.00
41756;DHT22;27435;48.480;9.258;2024-02-04T00:36:37;7.40;99.00
41756;DHT22;27435;48.480;9.258;2024-02-04T00:39:06;7.40;99.00
41756;DHT22;27435;48.480;9.258;2024-02-04T00:41:33;7.30;99.00
41756;DHT22;27435;48.480;9.258;2024-02-04T00:44:02;7.30;99.00
41756;DHT22;27435;48.480;9.258;2024-02-04T00:46:27;7.30;99.00
41756;DHT22;27435;48.480;9.258;2024-02-04T00:48:53;7.30;99.00
41756;DHT22;27435;48.480;9.258;2024-02-04T00:51:19;7.30;99.00
41756;DHT22;27435;48.480;9.258;2024-02-04T00:53:46;7.30;99.00
41756;DHT22;27435;48.480;9.258;2024-02-04T00:56:13;7.40;99.00
41756;DHT22;27435;48.480;9.258;2024-02-04T00:58:39;7.40;99.00
41756;DHT22;27435;48.480;9.258;2024-02-04T01:01:05;7.30;99.00
41756;DHT22;27435;48.480;9.258;2024-02-04T01:03:33;7.40;99.00
41756;DHT22;27435;48.480;9.258;2024-02-04T01:06:02;7.40;99.00
41756;DHT22;27435;48.480;9.258;2024-02-04T01:08:28;7.40;99.00
41756;DHT22;27435;48.480;9.258;2024-02-04T01:10:54;7.40;99.00
41756;DHT22;27435;48.480;9.258;2024-02-04T01:13:19;7.40;99.00
41756;DHT22;27435;48.480;9.258;2024-02-04T01:15:45;7.40;99.00
41756;DHT22;27435;48.480;9.258;2024-02-04T01:18:11;7.40;99.00
41756;DHT22;27435;48.480;9.258;2024-02-04T01:20:36;7.40;99.00
41756;DHT22;27435;48.480;9.258;2024-02-04T01:23:02;7.40;99.00
41756;DHT22;27435;48.480;9.258;2024-02-04T01:25:30;7.40;99.00
41756;DHT22;27435;48.480;9.258;2024-02-04T01:27:56;7.40;99.00
41756;DHT22;27435;48.480;9.258;2024-02-04T01:30:24;7.40;99.00
41756;DHT22;27435;48.480;9.258;2024-02-04T01:32:50;7.40;99.00
41756;DHT22;27435;48.480;9.258;2024-02-04T01:35:23;7.40;99.00
41756;DHT22;27435;48.480;9.258;2024-02-04T01:37:48;7.40;99.00
41756;DHT22;27435;48.480;9.258;2024-02-04T01:40:14;7.40;99.00
41756;DHT22;27435;48.480;9.258;2024-02-04T01:42:40;7.40;99.00
41756;DHT22;27435;48.480;9.258;2024-02-04T01:45:06;7.40;99.00
41756;DHT22;27435;48.480;9.258;2024-02-04T01:47:33;7.20;99.00
41756;DHT22;27435;48.480;9.258;2024-02-04T01:49:59;7.10;99.00
41756;DHT22;27435;48.480;9.258;2024-02-04T01:52:25;7.20;99.00
41756;DHT22;27435;48.480;9.258;2024-02-04T01:54:52;7.20;99.00
41756;DHT22;27435;48.480;9.258;2024-02-04T01:57:18;7.20;99.00
41756;DHT22;27435;48.480;9.258;2024-02-04T01:59:45;7.10;99.00
41756;DHT22;27435;48.480;9.258;2024-02-04T02:02:11;7.10;99.00
41756;DHT22;27435;48.480;9.258;2024-02-04T02:04:37;7.10;99.00
41756;DHT22;27435;48.480;9.258;2024-02-04T02:07:04;7.10;99.00
41756;DHT22;27435;48.480;9.258;2024-02-04T02:09:31;7.10;99.00
41756;DHT22;27435;48.480;9.258;2024-02-04T02:14:37;7.10;99.00
41756;DHT22;27435;48.480;9.258;2024-02-04T02:17:07;7.10;99.00
41756;DHT22;27435;48.480;9.258;2024-02-04T02:25:03;7.20;99.00
41756;DHT22;27435;48.480;9.258;2024-02-04T02:27:30;7.20;99.00
41756;DHT22;27435;48.480;9.258;2024-02-04T02:29:56;7.20;99.00
41756;DHT22;27435;48.480;9.258;2024-02-04T02:32:22;7.20;99.00
41756;DHT22;27435;48.480;9.258;2024-02-04T02:34:48;7.10;99.00
41756;DHT22;27435;48.480;9.258;2024-02-04T02:37:29;7.10;99.00
41756;DHT22;27435;48.480;9.258;2024-02-04T02:40:03;7.20;99.00
41756;DHT22;27435;48.480;9.258;2024-02-04T02:42:32;7.10;99.00
41756;DHT22;27435;48.480;9.258;2024-02-04T02:44:59;7.10;99.00
41756;DHT22;27435;48.480;9.258;2024-02-04T02:47:26;7.10;99.00
41756;DHT22;27435;48.480;9.258;2024-02-04T02:49:54;7.00;99.00
41756;DHT22;27435;48.480;9.258;2024-02-04T02:52:20;7.10;99.00
41756;DHT22;27435;48.480;9.258;2024-02-04T02:54:46;7.10;99.00
41756;DHT22;27435;48.480;9.258;2024-02-04T02:57:12;7.10;99.00
41756;DHT22;27435;48.480;9.258;2024-02-04T02:59:37;7.00;99.00
41756;DHT22;27435;48.480;9.258;2024-02-04T03:02:03;7.00;99.00
41756;DHT22;27435;48.480;9.258;2024-02-04T03:04:29;7.00;99.00
41756;DHT22;27435;48.480;9.258;2024-02-04T03:06:55;7.00;99.00
41756;DHT22;27435;48.480;9.258;2024-02-04T03:09:20;7.10;99.00
41756;DHT22;27435;48.480;9.258;2024-02-04T03:11:46;7.10;99.00
41756;DHT22;27435;48.480;9.258;2024-02-04T03:14:13;7.10;99.00
41756;DHT22;27435;48.480;9.258;2024-02-04T03:16:39;7.10;99.00
41756;DHT22;27435;48.480;9.258;2024-02-04T03:19:05;7.10;99.00
41756;DHT22;27435;48.480;9.258;2024-02-04T03:21:32;7.10;99.00
41756;DHT22;27435;48.480;9.258;2024-02-04T03:23:57;7.00;99.00
41756;DHT22;27435;48.480;9.258;2024-02-04T03:26:23;7.10;99.00
41756;DHT22;27435;48.480;9.258;2024-02-04T03:28:49;7.10;99.00
41756;DHT22;27435;48.480;9.258;2024-02-04T03:31:21;7.10;99.00
41756;DHT22;27435;48.480;9.258;2024-02-04T03:33:47;7.00;99.00
41756;DHT22;27435;48.480;9.258;2024-02-04T03:36:19;7.00;99.00
41756;DHT22;27435;48.480;9.258;2024-02-04T03:38:45;7.00;99.00
41756;DHT22;27435;48.480;9.258;2024-02-04T03:41:11;7.00;99.00
41756;DHT22;27435;48.480;9.258;2024-02-04T03:43:37;6.90;99.00
41756;DHT22;27435;48.480;9.258;2024-02-04T03:46:02;7.00;99.00
41756;DHT22;27435;48.480;9.258;2024-02-04T03:48:28;7.00;99.00
41756;DHT22;27435;48.480;9.258;2024-02-04T03:50:54;7.00;99.00
41756;DHT22;27435;48.480;9.258;2024-02-04T03:53:20;7.00;99.00
41756;DHT22;27435;48.480;9.258;2024-02-04T03:55:48;7.00;99.00
41756;DHT22;27435;48.480;9.258;2024-02-04T03:58:14;7.00;99.00
41756;DHT22;27435;48.480;9.258;2024-02-04T04:00:40;7.00;99.00
41756;DHT22;27435;48.480;9.258;2024-02-04T04:03:05;6.90;99.00
41756;DHT22;27435;48.480;9.258;2024-02-04T04:05:31;6.90;99.00
41756;DHT22;27435;48.480;9.258;2024-02-04T04:07:57;7.00;99.00
41756;DHT22;27435;48.480;9.258;2024-02-04T04:10:22;7.00;99.00
41756;DHT22;27435;48.480;9.258;2024-02-04T04:12:48;7.00;99.00
41756;DHT22;27435;48.480;9.258;2024-02-04T04:15:14;7.00;99.00
41756;DHT22;27435;48.480;9.258;2024-02-04T04:17:39;7.00;99.00
41756;DHT22;27435;48.480;9.258;2024-02-04T04:20:07;7.00;99.00
41756;DHT22;27435;48.480;9.258;2024-02-04T04:22:33;6.90;99.00
41756;DHT22;27435;48.480;9.258;2024-02-04T04:24:58;7.00;99.00
41756;DHT22;27435;48.480;9.258;2024-02-04T04:27:24;7.00;99.00
41756;DHT22;27435;48.480;9.258;2024-02-04T04:29:50;7.00;99.00
41756;DHT22;27435;48.480;9.258;2024-02-04T04:32:15;7.00;99.00
41756;DHT22;27435;48.480;9.258;2024-02-04T04:34:41;7.00;99.00
41756;DHT22;27435;48.480;9.258;2024-02-04T04:37:07;7.10;99.00
41756;DHT22;27435;48.480;9.258;2024-02-04T04:39:33;7.10;99.00
41756;DHT22;27435;48.480;9.258;2024-02-04T04:41:58;7.00;99.00
41756;DHT22;27435;48.480;9.258;2024-02-04T04:44:24;7.00;99.00
41756;DHT22;27435;48.480;9.258;2024-02-04T04:46:50;7.00;99.00
41756;DHT22;27435;48.480;9.258;2024-02-04T04:49:15;7.10;99.00
41756;DHT22;27435;48.480;9.258;2024-02-04T04:51:45;7.10;99.00
41756;DHT22;27435;48.480;9.258;2024-02-04T04:54:11;7.00;99.00
41756;DHT22;27435;48.480;9.258;2024-02-04T04:56:40;6.90;99.00
41756;DHT22;27435;48.480;9.258;2024-02-04T04:59:07;6.80;99.00
41756;DHT22;27435;48.480;9.258;2024-02-04T05:01:32;6.70;99.00
41756;DHT22;27435;48.480;9.258;2024-02-04T05:03:58;6.70;99.00
41756;DHT22;27435;48.480;9.258;2024-02-04T05:06:24;6.60;99.00
41756;DHT22;27435;48.480;9.258;2024-02-04T05:08:49;6.60;99.00
41756;DHT22;27435;48.480;9.258;2024-02-04T05:11:15;6.60;99.00
41756;DHT22;27435;48.480;9.258;2024-02-04T05:13:40;6.70;99.00
41756;DHT22;27435;48.480;9.258;2024-02-04T05:16:06;6.70;99.00
41756;DHT22;27435;48.480;9.258;2024-02-04T05:18:32;6.70;99.00
41756;DHT22;27435;48.480;9.258;2024-02-04T05:20:57;6.70;99.00
41756;DHT22;27435;48.480;9.258;2024-02-04T05:23:23;6.80;99.00
41756;DHT22;27435;48.480;9.258;2024-02-04T05:25:49;6.80;99.00
41756;DHT22;27435;48.480;9.258;2024-02-04T05:28:14;6.80;99.00
41756;DHT22;27435;48.480;9.258;2024-02-04T05:30:43;6.80;99.00
41756;DHT22;27435;48.480;9.258;2024-02-04T05:33:09;6.90;99.00
41756;DHT22;27435;48.480;9.258;2024-02-04T05:35:34;6.90;99.00
41756;DHT22;27435;48.480;9.258;2024-02-04T05:38:02;6.80;99.00
41756;DHT22;27435;48.480;9.258;2024-02-04T05:40:28;7.00;99.00
41756;DHT22;27435;48.480;9.258;2024-02-04T05:42:53;7.00;99.00
41756;DHT22;27435;48.480;9.258;2024-02-04T05:45:19;7.00;99.00
41756;DHT22;27435;48.480;9.258;2024-02-04T05:47:45;6.90;99.00
41756;DHT22;27435;48.480;9.258;2024-02-04T05:50:10;6.90;99.00
41756;DHT22;27435;48.480;9.258;2024-02-04T05:52:36;6.80;99.00
41756;DHT22;27435;48.480;9.258;2024-02-04T05:55:02;6.80;99.00
41756;DHT22;27435;48.480;9.258;2024-02-04T05:57:27;6.90;99.00
41756;DHT22;27435;48.480;9.258;2024-02-04T05:59:53;6.80;99.00
41756;DHT22;27435;48.480;9.258;2024-02-04T06:02:20;6.80;99.00
41756;DHT22;27435;48.480;9.258;2024-02-04T06:04:46;6.80;99.00
41756;DHT22;27435;48.480;9.258;2024-02-04T06:07:13;6.90;99.00
41756;DHT22;27435;48.480;9.258;2024-02-04T06:09:39;6.90;99.00
41756;DHT22;27435;48.480;9.258;2024-02-04T06:12:05;6.80;99.00
41756;DHT22;27435;48.480;9.258;2024-02-04T06:14:33;6.80;99.00
41756;DHT22;27435;48.480;9.258;2024-02-04T06:16:59;6.80;99.00
41756;DHT22;27435;48.480;9.258;2024-02-04T06:19:25;6.80;99.00
41756;DHT22;27435;48.480;9.258;2024-02-04T06:21:51;6.90;99.00
41756;DHT22;27435;48.480;9.258;2024-02-04T06:24:16;6.90;99.00
41756;DHT22;27435;48.480;9.258;2024-02-04T06:26:45;6.90;99.00
41756;DHT22;27435;48.480;9.258;2024-02-04T06:29:10;6.90;99.00
41756;DHT22;27435;48.480;9.258;2024-02-04T06:31:36;6.80;99.00
41756;DHT22;27435;48.480;9.258;2024-02-04T06:34:01;6.90;99.00
41756;DHT22;27435;48.480;9.258;2024-02-04T06:36:27;6.90;99.00
41756;DHT22;27435;48.480;9.258;2024-02-04T06:38:53;6.90;99.00
41756;DHT22;27435;48.480;9.258;2024-02-04T06:41:19;6.90;99.00
41756;DHT22;27435;48.480;9.258;2024-02-04T06:43:44;6.80;99.00
41756;DHT22;27435;48.480;9.258;2024-02-04T06:46:11;6.80;99.00
41756;DHT22;27435;48.480;9.258;2024-02-04T06:48:37;6.80;99.00
41756;DHT22;27435;48.480;9.258;2024-02-04T06:51:02;6.80;99.00
41756;DHT22;27435;48.480;9.258;2024-02-04T06:53:28;6.80;99.00
41756;DHT22;27435;48.480;9.258;2024-02-04T06:55:53;6.80;99.00
41756;DHT22;27435;48.480;9.258;2024-02-04T06:58:19;6.80;99.00
41756;DHT22;27435;48.480;9.258;2024-02-04T07:00:46;6.80;99.00
41756;DHT22;27435;48.480;9.258;2024-02-04T07:03:12;6.90;99.00
41756;DHT22;27435;48.480;9.258;2024-02-04T07:05:37;6.90;99.00
41756;DHT22;27435;48.480;9.258;2024-02-04T07:08:03;6.90;99.00
41756;DHT22;27435;48.480;9.258;2024-02-04T07:10:29;7.00;99.00
41756;DHT22;27435;48.480;9.258;2024-02-04T07:12:54;7.00;99.00
41756;DHT22;27435;48.480;9.258;2024-02-04T07:15:20;6.90;99.00
41756;DHT22;27435;48.480;9.258;2024-02-04T07:17:46;7.00;99.00
41756;DHT22;27435;48.480;9.258;2024-02-04T07:20:12;7.00;99.00
41756;DHT22;27435;48.480;9.258;2024-02-04T07:22:37;7.00;99.00
41756;DHT22;27435;48.480;9.258;2024-02-04T07:25:03;7.10;99.00
41756;DHT22;27435;48.480;9.258;2024-02-04T07:27:29;7.10;99.00
41756;DHT22;27435;48.480;9.258;2024-02-04T07:29:54;7.10;99.00
41756;DHT22;27435;48.480;9.258;2024-02-04T07:32:21;7.10;99.00
41756;DHT22;27435;48.480;9.258;2024-02-04T07:34:46;7.10;99.00
41756;DHT22;27435;48.480;9.258;2024-02-04T07:37:12;7.10;99.00
41756;DHT22;27435;48.480;9.258;2024-02-04T07:39:38;7.10;99.00
41756;DHT22;27435;48.480;9.258;2024-02-04T07:42:03;7.20;99.00
41756;DHT22;27435;48.480;9.258;2024-02-04T07:44:29;7.30;99.00
41756;DHT22;27435;48.480;9.258;2024-02-04T07:46:55;7.40;99.00
41756;DHT22;27435;48.480;9.258;2024-02-04T07:49:20;7.40;99.00
41756;DHT22;27435;48.480;9.258;2024-02-04T07:51:46;7.40;99.00
41756;DHT22;27435;48.480;9.258;2024-02-04T07:54:12;7.50;99.00
41756;DHT22;27435;48.480;9.258;2024-02-04T07:56:38;7.60;99.00
41756;DHT22;27435;48.480;9.258;2024-02-04T07:59:03;7.60;99.00
41756;DHT22;27435;48.480;9.258;2024-02-04T08:01:29;7.60;99.00
41756;DHT22;27435;48.480;9.258;2024-02-04T08:03:55;7.50;99.00
41756;DHT22;27435;48.480;9.258;2024-02-04T08:06:21;7.50;99.00
41756;DHT22;27435;48.480;9.258;2024-02-04T08:08:47;7.50;99.00
41756;DHT22;27435;48.480;9.258;2024-02-04T08:11:17;7.50;99.00
41756;DHT22;27435;48.480;9.258;2024-02-04T08:13:43;7.50;99.00
41756;DHT22;27435;48.480;9.258;2024-02-04T08:16:09;7.60;99.00
41756;DHT22;27435;48.480;9.258;2024-02-04T08:21:55;7.60;99.00
41756;DHT22;27435;48.480;9.258;2024-02-04T08:24:21;7.70;99.00
41756;DHT22;27435;48.480;9.258;2024-02-04T08:26:47;7.70;99.00
41756;DHT22;27435;48.480;9.258;2024-02-04T08:29:13;7.80;99.00
41756;DHT22;27435;48.480;9.258;2024-02-04T08:31:38;7.70;99.00
41756;DHT22;27435;48.480;9.258;2024-02-04T08:34:04;7.70;99.00
41756;DHT22;27435;48.480;9.258;2024-02-04T08:36:31;7.80;99.00
41756;DHT22;27435;48.480;9.258;2024-02-04T08:38:56;7.80;99.00
41756;DHT22;27435;48.480;9.258;2024-02-04T08:41:22;7.80;99.00
41756;DHT22;27435;48.480;9.258;2024-02-04T08:43:48;7.90;99.00
41756;DHT22;27435;48.480;9.258;2024-02-04T08:46:13;8.00;99.00
41756;DHT22;27435;48.480;9.258;2024-02-04T08:48:39;8.00;99.00
41756;DHT22;27435;48.480;9.258;2024-02-04T08:51:13;7.90;99.00
41756;DHT22;27435;48.480;9.258;2024-02-04T08:53:39;7.90;99.00
41756;DHT22;27435;48.480;9.258;2024-02-04T08:56:07;8.00;99.00
41756;DHT22;27435;48.480;9.258;2024-02-04T08:58:35;8.10;99.00
41756;DHT22;27435;48.480;9.258;2024-02-04T09:01:03;8.20;99.00
41756;DHT22;27435;48.480;9.258;2024-02-04T09:03:29;8.10;99.00
41756;DHT22;27435;48.480;9.258;2024-02-04T09:05:55;8.20;99.00
41756;DHT22;27435;48.480;9.258;2024-02-04T09:08:20;8.20;99.00
41756;DHT22;27435;48.480;9.258;2024-02-04T09:10:46;8.40;99.00
41756;DHT22;27435;48.480;9.258;2024-02-04T09:13:12;8.50;99.00
41756;DHT22;27435;48.480;9.258;2024-02-04T09:15:37;8.50;99.00
41756;DHT22;27435;48.480;9.258;2024-02-04T09:18:03;8.40;99.00
41756;DHT22;27435;48.480;9.258;2024-02-04T09:20:29;8.40;99.00
41756;DHT22;27435;48.480;9.258;2024-02-04T09:22:54;8.50;99.00
41756;DHT22;27435;48.480;9.258;2024-02-04T09:25:20;8.30;99.00
41756;DHT22;27435;48.480;9.258;2024-02-04T09:27:46;8.20;99.00
41756;DHT22;27435;48.480;9.258;2024-02-04T09:30:12;8.20;99.00
41756;DHT22;27435;48.480;9.258;2024-02-04T09:32:37;8.10;99.00
41756;DHT22;27435;48.480;9.258;2024-02-04T09:35:03;8.10;99.00
41756;DHT22;27435;48.480;9.258;2024-02-04T09:37:29;8.10;99.00
41756;DHT22;27435;48.480;9.258;2024-02-04T09:39:55;8.20;99.00
41756;DHT22;27435;48.480;9.258;2024-02-04T09:42:21;8.20;99.00
41756;DHT22;27435;48.480;9.258;2024-02-04T09:44:48;8.10;99.00
41756;DHT22;27435;48.480;9.258;2024-02-04T09:47:14;8.20;99.00
41756;DHT22;27435;48.480;9.258;2024-02-04T09:49:40;8.30;99.00
41756;DHT22;27435;48.480;9.258;2024-02-04T09:52:09;8.40;99.00
41756;DHT22;27435;48.480;9.258;2024-02-04T09:54:50;8.50;99.00
41756;DHT22;27435;48.480;9.258;2024-02-04T09:57:16;8.50;99.00
41756;DHT22;27435;48.480;9.258;2024-02-04T09:59:45;8.70;99.00
41756;DHT22;27435;48.480;9.258;2024-02-04T10:02:13;8.80;99.00
41756;DHT22;27435;48.480;9.258;2024-02-04T10:04:38;8.90;99.00
41756;DHT22;27435;48.480;9.258;2024-02-04T10:07:04;9.00;98.70
41756;DHT22;27435;48.480;9.258;2024-02-04T10:09:30;9.10;98.80
41756;DHT22;27435;48.480;9.258;2024-02-04T10:11:57;8.90;98.50
41756;DHT22;27435;48.480;9.258;2024-02-04T10:14:22;8.90;99.00
41756;DHT22;27435;48.480;9.258;2024-02-04T10:16:49;9.00;99.00
41756;DHT22;27435;48.480;9.258;2024-02-04T10:19:15;9.20;99.00
41756;DHT22;27435;48.480;9.258;2024-02-04T10:21:40;9.40;97.70
41756;DHT22;27435;48.480;9.258;2024-02-04T10:24:06;9.60;97.00
41756;DHT22;27435;48.480;9.258;2024-02-04T10:26:33;9.70;96.30
41756;DHT22;27435;48.480;9.258;2024-02-04T10:29:03;9.70;96.10
41756;DHT22;27435;48.480;9.258;2024-02-04T10:31:29;9.60;96.40
41756;DHT22;27435;48.480;9.258;2024-02-04T10:33:55;9.60;96.30
41756;DHT22;27435;48.480;9.258;2024-02-04T10:36:21;9.60;96.70
41756;DHT22;27435;48.480;9.258;2024-02-04T10:38:46;9.60;96.40
41756;DHT22;27435;48.480;9.258;2024-02-04T10:41:17;9.70;96.40
41756;DHT22;27435;48.480;9.258;2024-02-04T10:43:44;9.70;96.10
41756;DHT22;27435;48.480;9.258;2024-02-04T10:46:16;9.80;96.10
41756;DHT22;27435;48.480;9.258;2024-02-04T10:48:43;9.80;96.30
41756;DHT22;27435;48.480;9.258;2024-02-04T10:51:15;9.80;96.80
41756;DHT22;27435;48.480;9.258;2024-02-04T10:53:44;10.00;95.20
41756;DHT22;27435;48.480;9.258;2024-02-04T10:56:29;9.90;95.80
41756;DHT22;27435;48.480;9.258;2024-02-04T10:58:56;9.80;95.80
41756;DHT22;27435;48.480;9.258;2024-02-04T11:01:24;9.70;96.40
41756;DHT22;27435;48.480;9.258;2024-02-04T11:03:51;9.60;97.00
41756;DHT22;27435;48.480;9.258;2024-02-04T11:06:20;9.50;97.50
41756;DHT22;27435;48.480;9.258;2024-02-04T11:08:46;9.80;97.20
41756;DHT22;27435;48.480;9.258;2024-02-04T11:11:12;9.70;97.00
41756;DHT22;27435;48.480;9.258;2024-02-04T11:13:40;9.70;97.20
41756;DHT22;27435;48.480;9.258;2024-02-04T11:19:32;10.00;96.40
41756;DHT22;27435;48.480;9.258;2024-02-04T11:24:52;9.80;96.60
41756;DHT22;27435;48.480;9.258;2024-02-04T11:27:12;10.00;96.40
41756;DHT22;27435;48.480;9.258;2024-02-04T11:29:39;9.90;96.40
41756;DHT22;27435;48.480;9.258;2024-02-04T11:32:05;9.80;96.30
41756;DHT22;27435;48.480;9.258;2024-02-04T11:34:33;9.80;96.60
41756;DHT22;27435;48.480;9.258;2024-02-04T11:36:59;10.00;96.40
41756;DHT22;27435;48.480;9.258;2024-02-04T11:39:25;10.20;96.00
41756;DHT22;27435;48.480;9.258;2024-02-04T11:41:51;10.50;95.00
41756;DHT22;27435;48.480;9.258;2024-02-04T11:44:23;10.50;94.50
41756;DHT22;27435;48.480;9.258;2024-02-04T11:46:50;10.50;94.20
41756;DHT22;27435;48.480;9.258;2024-02-04T11:49:19;10.50;94.50
41756;DHT22;27435;48.480;9.258;2024-02-04T11:51:50;10.60;93.60
41756;DHT22;27435;48.480;9.258;2024-02-04T11:54:17;10.60;94.30
41756;DHT22;27435;48.480;9.258;2024-02-04T11:56:45;10.60;93.90
41756;DHT22;27435;48.480;9.258;2024-02-04T11:59:22;10.70;94.10
41756;DHT22;27435;48.480;9.258;2024-02-04T12:01:48;10.90;93.70
41756;DHT22;27435;48.480;9.258;2024-02-04T12:04:15;11.30;92.80
41756;DHT22;27435;48.480;9.258;2024-02-04T12:06:42;11.30;91.90
41756;DHT22;27435;48.480;9.258;2024-02-04T12:09:09;11.20;92.10
41756;DHT22;27435;48.480;9.258;2024-02-04T12:11:38;11.40;91.80
41756;DHT22;27435;48.480;9.258;2024-02-04T12:14:05;11.60;90.70
41756;DHT22;27435;48.480;9.258;2024-02-04T12:16:33;11.60;90.70
41756;DHT22;27435;48.480;9.258;2024-02-04T12:19:01;11.60;90.60
41756;DHT22;27435;48.480;9.258;2024-02-04T12:21:28;11.70;89.90
41756;DHT22;27435;48.480;9.258;2024-02-04T12:23:54;11.70;90.40
41756;DHT22;27435;48.480;9.258;2024-02-04T12:26:21;11.80;90.10
41756;DHT22;27435;48.480;9.258;2024-02-04T12:28:47;11.80;89.80
41756;DHT22;27435;48.480;9.258;2024-02-04T12:31:20;11.70;89.80
41756;DHT22;27435;48.480;9.258;2024-02-04T12:33:56;11.50;90.70
41756;DHT22;27435;48.480;9.258;2024-02-04T12:36:30;11.50;90.90
41756;DHT22;27435;48.480;9.258;2024-02-04T12:38:58;11.50;90.90
41756;DHT22;27435;48.480;9.258;2024-02-04T12:41:24;11.60;90.40
41756;DHT22;27435;48.480;9.258;2024-02-04T12:43:56;11.70;90.30
41756;DHT22;27435;48.480;9.258;2024-02-04T12:46:25;11.50;90.70
41756;DHT22;27435;48.480;9.258;2024-02-04T12:48:55;11.40;91.40
41756;DHT22;27435;48.480;9.258;2024-02-04T12:51:28;11.60;90.90
41756;DHT22;27435;48.480;9.258;2024-02-04T12:54:07;11.70;90.40
41756;DHT22;27435;48.480;9.258;2024-02-04T12:56:53;11.50;90.30
41756;DHT22;27435;48.480;9.258;2024-02-04T12:59:31;11.50;91.20
41756;DHT22;27435;48.480;9.258;2024-02-04T13:02:15;11.40;91.10
41756;DHT22;27435;48.480;9.258;2024-02-04T13:04:42;11.50;91.20
41756;DHT22;27435;48.480;9.258;2024-02-04T13:07:12;11.30;91.50
41756;DHT22;27435;48.480;9.258;2024-02-04T13:09:40;11.40;91.40
41756;DHT22;27435;48.480;9.258;2024-02-04T13:12:08;11.50;91.40
41756;DHT22;27435;48.480;9.258;2024-02-04T13:14:37;11.40;91.40
41756;DHT22;27435;48.480;9.258;2024-02-04T13:17:06;11.60;91.40
41756;DHT22;27435;48.480;9.258;2024-02-04T13:19:36;11.70;90.60
41756;DHT22;27435;48.480;9.258;2024-02-04T13:22:06;11.70;90.40
41756;DHT22;27435;48.480;9.258;2024-02-04T13:24:32;11.80;89.90
41756;DHT22;27435;48.480;9.258;2024-02-04T13:26:58;11.80;89.70
41756;DHT22;27435;48.480;9.258;2024-02-04T13:29:26;11.90;89.60
41756;DHT22;27435;48.480;9.258;2024-02-04T13:31:52;12.20;88.40
41756;DHT22;27435;48.480;9.258;2024-02-04T13:34:17;12.20;88.00
41756;DHT22;27435;48.480;9.258;2024-02-04T13:36:44;12.30;87.40
41756;DHT22;27435;48.480;9.258;2024-02-04T13:39:09;12.10;88.40
41756;DHT22;27435;48.480;9.258;2024-02-04T13:41:38;12.00;88.90
41756;DHT22;27435;48.480;9.258;2024-02-04T13:44:04;12.00;88.90
41756;DHT22;27435;48.480;9.258;2024-02-04T13:46:29;11.90;89.50
41756;DHT22;27435;48.480;9.258;2024-02-04T13:48:55;11.60;90.40
41756;DHT22;27435;48.480;9.258;2024-02-04T13:51:21;11.70;90.40
41756;DHT22;27435;48.480;9.258;2024-02-04T13:53:46;11.90;90.20
41756;DHT22;27435;48.480;9.258;2024-02-04T13:56:12;11.90;90.50
41756;DHT22;27435;48.480;9.258;2024-02-04T13:58:38;12.00;90.20
41756;DHT22;27435;48.480;9.258;2024-02-04T14:01:03;12.10;89.60
41756;DHT22;27435;48.480;9.258;2024-02-04T14:03:29;12.00;89.80
41756;DHT22;27435;48.480;9.258;2024-02-04T14:05:54;11.90;90.50
41756;DHT22;27435;48.480;9.258;2024-02-04T14:08:21;11.90;90.30
41756;DHT22;27435;48.480;9.258;2024-02-04T14:10:46;11.70;90.90
41756;DHT22;27435;48.480;9.258;2024-02-04T14:13:12;11.60;91.20
41756;DHT22;27435;48.480;9.258;2024-02-04T14:15:38;11.60;91.70
41756;DHT22;27435;48.480;9.258;2024-02-04T14:18:04;11.70;91.00
41756;DHT22;27435;48.480;9.258;2024-02-04T14:20:31;11.80;91.00
41756;DHT22;27435;48.480;9.258;2024-02-04T14:22:56;11.90;90.70
41756;DHT22;27435;48.480;9.258;2024-02-04T14:25:23;12.00;90.10
41756;DHT22;27435;48.480;9.258;2024-02-04T14:27:50;11.90;90.10
41756;DHT22;27435;48.480;9.258;2024-02-04T14:30:15;11.90;90.50
41756;DHT22;27435;48.480;9.258;2024-02-04T14:32:41;11.70;90.90
41756;DHT22;27435;48.480;9.258;2024-02-04T14:35:08;11.70;91.10
41756;DHT22;27435;48.480;9.258;2024-02-04T14:37:35;11.70;91.10
41756;DHT22;27435;48.480;9.258;2024-02-04T14:40:01;11.70;91.10
41756;DHT22;27435;48.480;9.258;2024-02-04T14:42:29;11.60;91.30
41756;DHT22;27435;48.480;9.258;2024-02-04T14:44:55;11.80;91.10
41756;DHT22;27435;48.480;9.258;2024-02-04T14:47:20;11.90;90.30
41756;DHT22;27435;48.480;9.258;2024-02-04T14:49:46;11.80;90.90
41756;DHT22;27435;48.480;9.258;2024-02-04T14:52:12;11.80;90.80
41756;DHT22;27435;48.480;9.258;2024-02-04T14:54:37;11.70;91.20
41756;DHT22;27435;48.480;9.258;2024-02-04T14:57:04;11.80;90.70
41756;DHT22;27435;48.480;9.258;2024-02-04T14:59:30;11.60;90.90
41756;DHT22;27435;48.480;9.258;2024-02-04T15:01:58;11.50;91.80
41756;DHT22;27435;48.480;9.258;2024-02-04T15:04:23;11.40;92.10
41756;DHT22;27435;48.480;9.258;2024-02-04T15:06:50;11.50;92.10
41756;DHT22;27435;48.480;9.258;2024-02-04T15:09:15;11.60;91.70
41756;DHT22;27435;48.480;9.258;2024-02-04T15:11:41;11.50;92.00
41756;DHT22;27435;48.480;9.258;2024-02-04T15:14:08;11.40;92.10
41756;DHT22;27435;48.480;9.258;2024-02-04T15:16:35;11.30;92.30
41756;DHT22;27435;48.480;9.258;2024-02-04T15:19:04;11.20;93.00
41756;DHT22;27435;48.480;9.258;2024-02-04T15:21:30;11.20;93.20
41756;DHT22;27435;48.480;9.258;2024-02-04T15:23:56;11.10;93.70
41756;DHT22;27435;48.480;9.258;2024-02-04T15:26:23;11.00;93.60
41756;DHT22;27435;48.480;9.258;2024-02-04T15:28:50;10.90;94.30
41756;DHT22;27435;48.480;9.258;2024-02-04T15:31:17;10.80;94.60
41756;DHT22;27435;48.480;9.258;2024-02-04T15:33:43;10.70;95.30
41756;DHT22;27435;48.480;9.258;2024-02-04T15:36:09;10.80;95.20
41756;DHT22;27435;48.480;9.258;2024-02-04T15:38:35;10.70;95.40
41756;DHT22;27435;48.480;9.258;2024-02-04T15:41:01;10.60;96.10
41756;DHT22;27435;48.480;9.258;2024-02-04T15:43:26;10.60;96.20
41756;DHT22;27435;48.480;9.258;2024-02-04T15:45:54;10.50;96.50
41756;DHT22;27435;48.480;9.258;2024-02-04T15:48:25;10.50;96.70
41756;DHT22;27435;48.480;9.258;2024-02-04T15:50:53;10.50;96.80
41756;DHT22;27435;48.480;9.258;2024-02-04T15:53:19;10.50;96.70
41756;DHT22;27435;48.480;9.258;2024-02-04T15:55:45;10.40;97.40
41756;DHT22;27435;48.480;9.258;2024-02-04T15:58:11;10.40;97.30